createdAt,value
2023-05-22T00:01:09.703Z,10.52
2023-05-22T00:03:40.821Z,11.13
2023-05-22T00:06:11.954Z,9.77
2023-05-22T00:08:40.438Z,11.95
2023-05-22T00:11:10.013Z,11.05
2023-05-22T00:13:38.751Z,11.45
2023-05-22T00:16:07.545Z,11.20
2023-05-22T00:18:35.976Z,11.43
2023-05-22T00:21:04.521Z,11.48
2023-05-22T00:23:34.858Z,10.88
2023-05-22T00:26:03.372Z,11.02
2023-05-22T00:28:32.000Z,11.20
2023-05-22T00:31:00.808Z,10.73
2023-05-22T00:33:29.479Z,11.10
2023-05-22T00:35:58.063Z,10.25
2023-05-22T00:38:32.627Z,11.38
2023-05-22T00:41:03.161Z,11.63
2023-05-22T00:43:31.926Z,11.15
2023-05-22T00:46:00.440Z,11.32
2023-05-22T00:48:29.009Z,11.55
2023-05-22T00:50:58.532Z,10.45
2023-05-22T00:53:30.493Z,11.88
2023-05-22T00:55:59.489Z,12.40
2023-05-22T00:58:29.517Z,11.00
2023-05-22T01:00:59.366Z,12.23
2023-05-22T01:03:28.462Z,11.13
2023-05-22T01:05:58.785Z,12.30
2023-05-22T01:08:27.612Z,11.75
2023-05-22T01:11:05.411Z,11.10
2023-05-22T01:13:40.760Z,11.88
2023-05-22T01:16:14.352Z,12.07
2023-05-22T01:18:45.809Z,10.57
2023-05-22T01:21:22.208Z,11.77
2023-05-22T01:24:06.540Z,12.00
2023-05-22T01:26:51.245Z,11.20
2023-05-22T01:29:49.879Z,11.85
2023-05-22T01:32:22.813Z,11.63
2023-05-22T01:34:55.590Z,11.82
2023-05-22T01:37:25.110Z,12.20
2023-05-22T01:39:54.294Z,11.68
2023-05-22T01:42:23.035Z,12.15
2023-05-22T01:44:51.584Z,12.10
2023-05-22T01:47:20.194Z,13.55
2023-05-22T01:49:50.684Z,11.93
2023-05-22T01:52:22.796Z,14.07
2023-05-22T01:54:53.879Z,13.23
2023-05-22T01:57:26.903Z,12.60
2023-05-22T01:59:58.727Z,12.73
2023-05-22T02:02:28.578Z,13.47
2023-05-22T02:05:01.723Z,12.47
2023-05-22T02:07:32.109Z,13.27
2023-05-22T02:10:01.505Z,12.70
2023-05-22T02:12:30.246Z,12.40
2023-05-22T02:14:58.963Z,12.67
2023-05-22T02:17:29.477Z,13.37
2023-05-22T02:20:01.330Z,13.67
2023-05-22T02:22:30.189Z,12.83
2023-05-22T02:24:58.826Z,14.33
2023-05-22T02:27:27.348Z,14.90
2023-05-22T02:29:56.528Z,14.10
2023-05-22T02:32:25.105Z,14.50
2023-05-22T02:34:56.002Z,13.50
2023-05-22T02:37:25.955Z,13.60
2023-05-22T02:39:58.735Z,14.43
2023-05-22T02:42:27.704Z,15.00
2023-05-22T02:44:56.287Z,13.70
2023-05-22T02:47:24.714Z,13.57
2023-05-22T02:49:53.340Z,14.37
2023-05-22T02:52:22.525Z,14.63
2023-05-22T02:54:52.519Z,14.53
2023-05-22T02:57:22.704Z,13.33
2023-05-22T02:59:51.347Z,13.40
2023-05-22T03:02:20.128Z,13.50
2023-05-22T03:04:50.132Z,14.80
2023-05-22T03:07:20.259Z,13.10
2023-05-22T03:09:48.861Z,13.73
2023-05-22T03:12:18.714Z,14.47
2023-05-22T03:14:48.048Z,13.77
2023-05-22T03:17:16.676Z,14.60
2023-05-22T03:19:45.492Z,14.47
2023-05-22T03:22:14.197Z,14.03
2023-05-22T03:24:42.913Z,13.23
2023-05-22T03:27:12.969Z,13.07
2023-05-22T03:29:44.972Z,13.60
2023-05-22T03:32:13.472Z,14.27
2023-05-22T03:34:42.190Z,13.37
2023-05-22T03:37:12.139Z,14.33
2023-05-22T03:39:40.819Z,12.77
2023-05-22T03:42:20.430Z,13.03
2023-05-22T03:44:50.683Z,15.70
2023-05-22T03:47:20.570Z,13.93
2023-05-22T03:49:49.173Z,14.10
2023-05-22T03:52:17.719Z,14.17
2023-05-22T03:54:46.454Z,15.33
2023-05-22T03:57:20.118Z,15.20
2023-05-22T03:59:51.422Z,15.27
2023-05-22T04:02:20.363Z,16.73
2023-05-22T04:04:49.002Z,16.80
2023-05-22T04:07:20.442Z,16.53
2023-05-22T04:09:49.022Z,17.03
2023-05-22T04:12:17.920Z,17.60
2023-05-22T04:14:46.381Z,14.50
2023-05-22T04:17:17.931Z,16.67
2023-05-22T04:19:46.378Z,15.63
2023-05-22T04:22:15.093Z,17.10
2023-05-22T04:24:49.086Z,14.80
2023-05-22T04:27:18.281Z,15.67
2023-05-22T04:29:46.900Z,18.37
2023-05-22T04:32:18.467Z,16.03
2023-05-22T04:34:48.704Z,16.93
2023-05-22T04:37:18.603Z,16.93
2023-05-22T04:39:47.253Z,16.20
2023-05-22T04:42:25.698Z,15.60
2023-05-22T04:44:58.194Z,16.00
2023-05-22T04:47:29.141Z,16.53
2023-05-22T04:49:58.701Z,14.73
2023-05-22T04:52:27.155Z,15.17
2023-05-22T04:54:55.593Z,15.90
2023-05-22T04:57:27.348Z,15.70
2023-05-22T04:59:57.372Z,14.27
2023-05-22T05:02:28.341Z,15.20
2023-05-22T05:04:56.834Z,15.67
2023-05-22T05:07:25.305Z,13.90
2023-05-22T05:09:54.207Z,14.63
2023-05-22T05:12:23.013Z,15.90
2023-05-22T05:14:52.190Z,14.15
2023-05-22T05:17:24.331Z,13.73
2023-05-22T05:19:56.299Z,13.80
2023-05-22T05:22:24.826Z,14.15
2023-05-22T05:24:53.881Z,13.10
2023-05-22T05:27:23.080Z,14.25
2023-05-22T05:29:54.263Z,13.10
2023-05-22T05:32:31.764Z,14.48
2023-05-22T05:35:28.458Z,14.23
2023-05-22T05:38:10.535Z,13.50
2023-05-22T05:40:42.287Z,13.23
2023-05-22T05:43:14.067Z,13.30
2023-05-22T05:45:43.749Z,13.30
2023-05-22T05:48:13.078Z,13.35
2023-05-22T05:50:47.256Z,13.15
2023-05-22T05:53:16.409Z,13.73
2023-05-22T05:55:50.531Z,13.07
2023-05-22T05:58:19.657Z,14.20
2023-05-22T06:01:27.198Z,13.60
2023-05-22T06:03:57.643Z,13.25
2023-05-22T06:06:31.234Z,13.20
2023-05-22T06:12:17.889Z,13.55
2023-05-22T06:14:47.101Z,15.40
2023-05-22T06:17:16.920Z,13.45
2023-05-22T06:19:47.777Z,13.00
2023-05-22T06:22:18.607Z,13.95
2023-05-22T06:24:50.863Z,12.82
2023-05-22T06:27:22.785Z,12.38
2023-05-22T06:29:52.920Z,12.80
2023-05-22T06:32:21.911Z,13.57
2023-05-22T06:34:54.748Z,12.80
2023-05-22T06:37:25.318Z,11.98
2023-05-22T06:40:09.681Z,12.07
2023-05-22T06:42:51.703Z,13.88
2023-05-22T06:45:25.498Z,12.63
2023-05-22T06:48:13.138Z,12.55
2023-05-22T06:50:55.590Z,15.07
2023-05-22T06:53:25.658Z,14.18
2023-05-22T06:55:54.653Z,14.05
2023-05-22T06:58:33.134Z,14.48
2023-05-22T07:01:07.878Z,13.38
2023-05-22T07:03:42.288Z,12.00
2023-05-22T07:06:36.205Z,12.30
2023-05-22T07:09:10.690Z,13.50
2023-05-22T07:11:39.984Z,12.68
2023-05-22T07:14:09.400Z,14.55
2023-05-22T07:16:39.239Z,15.48
2023-05-22T07:19:09.402Z,13.32
2023-05-22T07:21:39.204Z,14.07
2023-05-22T07:27:07.159Z,14.02
2023-05-22T07:29:36.508Z,14.32
2023-05-22T07:32:06.569Z,14.15
2023-05-22T07:34:40.089Z,14.25
2023-05-22T07:37:09.801Z,13.73
2023-05-22T07:39:38.683Z,15.48
2023-05-22T07:42:10.900Z,12.90
2023-05-22T07:44:48.694Z,14.40
2023-05-22T07:47:19.937Z,14.25
2023-05-22T07:49:50.906Z,14.13
2023-05-22T07:52:21.781Z,13.82
2023-05-22T07:54:51.628Z,14.65
2023-05-22T07:57:35.503Z,14.75
2023-05-22T08:00:14.727Z,14.75
2023-05-22T08:02:44.018Z,15.80
2023-05-22T08:05:13.055Z,14.13
2023-05-22T08:07:43.002Z,14.77
2023-05-22T08:10:15.574Z,15.32
2023-05-22T08:33:08.115Z,16.25
2023-05-22T08:35:36.823Z,17.02
2023-05-22T08:38:05.458Z,14.95
2023-05-22T08:40:37.366Z,15.88
2023-05-22T08:43:06.396Z,15.80
2023-05-22T08:45:35.049Z,16.52
2023-05-22T08:48:06.119Z,14.52
2023-05-22T08:50:38.920Z,13.27
2023-05-22T08:53:10.005Z,13.52
2023-05-22T08:55:39.202Z,15.07
2023-05-22T08:58:07.901Z,15.73
2023-05-22T09:00:37.416Z,14.02
2023-05-22T09:03:10.152Z,15.32
2023-05-22T09:05:41.464Z,14.88
2023-05-22T09:08:19.710Z,12.73
2023-05-22T09:10:49.493Z,12.27
2023-05-22T09:13:27.150Z,12.38
2023-05-22T09:15:59.586Z,11.70
2023-05-22T09:18:30.129Z,13.73
2023-05-22T09:21:04.908Z,13.57
2023-05-22T09:23:38.076Z,12.23
2023-05-22T09:26:06.717Z,14.32
2023-05-22T09:28:35.556Z,12.18
2023-05-22T09:31:04.813Z,12.32
2023-05-22T09:33:37.199Z,13.32
2023-05-22T09:36:11.036Z,11.93
2023-05-22T09:38:39.495Z,12.80
2023-05-22T09:41:08.107Z,11.75
2023-05-22T09:43:36.839Z,10.98
2023-05-22T09:46:05.650Z,11.32
2023-05-22T09:48:37.390Z,12.25
2023-05-22T09:51:08.596Z,12.45
2023-05-22T09:53:37.811Z,11.93
2023-05-22T09:56:11.892Z,11.77
2023-05-22T09:58:43.252Z,12.07
2023-05-22T10:01:14.150Z,11.23
2023-05-22T10:03:43.187Z,11.40
2023-05-22T10:06:14.331Z,10.90
2023-05-22T10:08:45.702Z,10.23
2023-05-22T10:11:14.549Z,10.65
2023-05-22T10:13:48.559Z,11.15
2023-05-22T10:16:17.609Z,11.20
2023-05-22T10:18:49.285Z,10.43
2023-05-22T10:21:19.517Z,10.80
2023-05-22T10:23:48.167Z,10.30
2023-05-22T10:26:17.918Z,10.57
2023-05-22T10:28:48.950Z,10.27
2023-05-22T10:31:23.523Z,9.25
2023-05-22T10:34:30.466Z,11.13
2023-05-22T10:37:16.440Z,10.82
2023-05-22T10:39:54.596Z,11.88
2023-05-22T10:42:23.247Z,11.75
2023-05-22T10:44:57.289Z,10.95
2023-05-22T10:47:25.831Z,9.73
2023-05-22T10:50:04.546Z,10.95
2023-05-22T10:52:34.488Z,10.27
2023-05-22T10:55:03.549Z,9.85
2023-05-22T10:57:35.437Z,10.50
2023-05-22T11:00:11.330Z,9.32
2023-05-22T11:02:44.015Z,9.10
2023-05-22T11:05:35.609Z,10.00
2023-05-22T11:08:35.227Z,10.43
2023-05-22T11:11:12.069Z,9.68
2023-05-22T11:13:42.562Z,10.93
2023-05-22T11:16:12.522Z,10.20
2023-05-22T11:18:42.071Z,9.40
2023-05-22T11:21:14.801Z,9.57
2023-05-22T11:23:44.678Z,9.57
2023-05-22T11:26:20.438Z,9.68
2023-05-22T11:28:54.411Z,9.07
2023-05-22T11:31:24.386Z,9.98
2023-05-22T11:33:52.953Z,9.07
2023-05-22T11:36:23.340Z,10.35
2023-05-22T11:38:53.449Z,9.73
2023-05-22T11:41:22.807Z,9.05
2023-05-22T11:43:51.405Z,9.60
2023-05-22T11:46:20.204Z,10.48
2023-05-22T11:48:55.108Z,10.20
2023-05-22T11:51:24.402Z,11.48
2023-05-22T11:53:56.686Z,11.63
2023-05-22T11:56:28.695Z,11.70
2023-05-22T11:58:57.364Z,11.13
2023-05-22T12:01:26.598Z,11.02
2023-05-22T12:03:55.704Z,10.65
2023-05-22T12:06:24.453Z,10.10
2023-05-22T12:08:54.611Z,11.00
2023-05-22T12:11:24.587Z,10.68
2023-05-22T12:14:01.745Z,11.40
2023-05-22T12:16:30.635Z,10.82
2023-05-22T12:18:59.460Z,11.15
2023-05-22T12:21:28.812Z,11.63
2023-05-22T12:23:59.029Z,10.65
2023-05-22T12:26:27.646Z,9.80
2023-05-22T12:28:56.420Z,10.00
2023-05-22T12:31:26.333Z,9.73
2023-05-22T12:33:56.546Z,10.30
2023-05-22T12:36:33.691Z,9.93
2023-05-22T12:39:09.716Z,11.10
2023-05-22T12:41:40.264Z,10.35
2023-05-22T12:44:09.271Z,10.60
2023-05-22T12:46:38.311Z,10.68
2023-05-22T12:49:06.988Z,10.82
2023-05-22T12:51:35.481Z,10.70
2023-05-22T12:54:07.948Z,9.93
2023-05-22T12:56:36.442Z,9.80
2023-05-22T12:59:08.298Z,9.40
2023-05-22T13:01:37.897Z,9.57
2023-05-22T13:04:06.410Z,8.35
2023-05-22T13:06:35.121Z,9.02
2023-05-22T13:09:05.157Z,8.88
2023-05-22T13:11:34.733Z,8.20
2023-05-22T13:14:03.312Z,8.40
2023-05-22T13:16:32.964Z,8.13
2023-05-22T13:19:05.081Z,8.30
2023-05-22T13:21:33.946Z,8.88
2023-05-22T13:24:03.496Z,8.13
2023-05-22T13:26:33.756Z,8.32
2023-05-22T13:29:02.709Z,8.27
2023-05-22T13:31:33.423Z,8.23
2023-05-22T13:34:03.258Z,7.90
2023-05-22T13:36:34.481Z,7.85
2023-05-22T13:39:03.043Z,7.90
2023-05-22T13:41:34.780Z,7.63
2023-05-22T13:44:05.508Z,7.97
2023-05-22T13:46:34.035Z,7.65
2023-05-22T13:49:02.758Z,7.15
2023-05-22T13:51:34.751Z,7.28
2023-05-22T13:54:04.320Z,6.75
2023-05-22T13:56:33.153Z,6.68
2023-05-22T13:59:08.442Z,6.32
2023-05-22T14:04:42.939Z,6.15
2023-05-22T14:07:11.584Z,6.07
2023-05-22T14:09:40.266Z,6.20
2023-05-22T14:12:09.188Z,5.70
2023-05-22T14:14:39.204Z,6.18
2023-05-22T14:17:11.051Z,5.13
2023-05-22T14:19:40.358Z,5.28
2023-05-22T14:22:13.572Z,5.70
2023-05-22T14:24:42.186Z,5.35
2023-05-22T14:27:10.936Z,5.63
2023-05-22T14:29:40.906Z,4.75
2023-05-22T14:32:10.536Z,4.97
2023-05-22T14:34:39.810Z,5.30
2023-05-22T14:37:09.341Z,4.90
2023-05-22T14:39:37.955Z,5.20
2023-05-22T14:42:08.614Z,4.80
2023-05-22T14:44:37.106Z,4.88
2023-05-22T14:47:07.220Z,5.10
2023-05-22T14:49:35.753Z,4.55
2023-05-22T14:52:06.376Z,5.07
2023-05-22T14:54:36.759Z,4.50
2023-05-22T14:57:05.299Z,5.00
2023-05-22T14:59:34.267Z,4.97
2023-05-22T15:02:04.732Z,4.53
2023-05-22T15:04:34.772Z,4.40
2023-05-22T15:07:03.307Z,4.55
2023-05-22T15:09:32.622Z,4.38
2023-05-22T15:12:01.653Z,4.80
2023-05-22T15:14:30.167Z,4.40
2023-05-22T15:17:01.428Z,4.32
2023-05-22T15:19:30.406Z,7.88
2023-05-22T15:22:08.912Z,4.03
2023-05-22T15:24:48.978Z,4.05
2023-05-22T15:27:18.159Z,4.32
2023-05-22T15:29:46.715Z,4.28
2023-05-22T15:32:15.126Z,3.85
2023-05-22T15:34:43.762Z,3.95
2023-05-22T15:37:17.862Z,4.65
2023-05-22T15:39:46.572Z,4.63
2023-05-22T15:42:15.001Z,4.00
2023-05-22T15:44:43.420Z,3.90
2023-05-22T15:47:11.906Z,3.80
2023-05-22T15:49:41.113Z,4.13
2023-05-22T15:52:09.684Z,3.90
2023-05-22T15:54:39.820Z,4.00
2023-05-22T15:57:08.751Z,3.60
2023-05-22T16:00:20.734Z,3.63
2023-05-22T16:02:51.272Z,4.00
2023-05-22T16:05:19.823Z,3.60
2023-05-22T16:07:48.537Z,3.78
2023-05-22T16:10:19.247Z,4.10
2023-05-22T16:16:09.042Z,3.85
2023-05-22T16:18:40.106Z,4.45
2023-05-22T16:21:08.815Z,3.85
2023-05-22T16:23:42.566Z,3.80
2023-05-22T16:26:16.494Z,4.70
2023-05-22T16:28:53.846Z,3.75
2023-05-22T16:31:24.598Z,4.13
2023-05-22T16:33:54.048Z,4.03
2023-05-22T16:36:24.172Z,3.97
2023-05-22T16:38:54.668Z,4.35
2023-05-22T16:41:24.870Z,4.15
2023-05-22T16:43:53.578Z,4.18
2023-05-22T16:46:24.637Z,4.97
2023-05-22T16:48:53.603Z,4.32
2023-05-22T16:51:22.102Z,4.88
2023-05-22T16:53:51.685Z,5.10
2023-05-22T16:56:23.792Z,5.10
2023-05-22T16:58:54.999Z,4.88
2023-05-22T17:01:23.734Z,5.03
2023-05-22T17:04:04.007Z,5.45
2023-05-22T17:06:32.732Z,5.32
2023-05-22T17:09:01.518Z,5.63
2023-05-22T17:11:31.298Z,5.70
2023-05-22T17:14:01.656Z,5.88
2023-05-22T17:16:45.845Z,5.20
2023-05-22T17:19:14.483Z,5.50
2023-05-22T17:21:43.284Z,5.47
2023-05-22T17:24:14.722Z,5.65
2023-05-22T17:26:43.536Z,5.90
2023-05-22T17:29:13.579Z,5.82
2023-05-22T17:31:42.589Z,6.85
2023-05-22T17:34:11.223Z,6.28
2023-05-22T17:36:40.653Z,6.82
2023-05-22T17:39:10.947Z,6.95
2023-05-22T17:41:40.703Z,7.25
2023-05-22T17:44:14.716Z,6.82
2023-05-22T17:46:56.364Z,7.15
2023-05-22T17:49:42.093Z,7.35
2023-05-22T17:52:16.665Z,7.80
2023-05-22T17:55:04.845Z,7.03
2023-05-22T17:57:33.661Z,8.10
2023-05-22T18:00:05.901Z,7.72
2023-05-22T18:02:44.668Z,7.88
2023-05-22T18:05:13.895Z,8.23
2023-05-22T18:07:42.558Z,7.10
2023-05-22T18:10:11.314Z,7.20
2023-05-22T18:12:52.436Z,7.57
2023-05-22T18:15:30.025Z,7.75
2023-05-22T18:18:00.320Z,6.95
2023-05-22T18:20:28.872Z,7.30
2023-05-22T18:22:58.376Z,7.63
2023-05-22T18:25:27.376Z,7.72
2023-05-22T18:27:56.347Z,6.47
2023-05-22T18:30:24.865Z,7.15
2023-05-22T18:32:53.513Z,7.25
2023-05-22T18:35:23.437Z,6.85
2023-05-22T18:37:52.262Z,6.57
2023-05-22T18:40:20.897Z,6.57
2023-05-22T18:42:51.777Z,5.72
2023-05-22T18:45:20.242Z,6.03
2023-05-22T18:47:48.765Z,6.05
2023-05-22T18:50:17.571Z,6.63
2023-05-22T18:52:47.691Z,6.82
2023-05-22T18:55:16.324Z,6.65
2023-05-22T18:57:46.687Z,6.68
2023-05-22T19:00:15.292Z,7.60
2023-05-22T19:02:44.713Z,7.07
2023-05-22T19:05:13.254Z,7.10
2023-05-22T19:07:41.745Z,6.82
2023-05-22T19:10:12.278Z,6.88
2023-05-22T19:12:40.750Z,6.88
2023-05-22T19:15:09.776Z,6.78
2023-05-22T19:17:38.277Z,6.50
2023-05-22T19:20:07.620Z,6.93
2023-05-22T19:22:36.300Z,6.85
2023-05-22T19:25:08.298Z,6.60
2023-05-22T19:27:39.274Z,7.13
2023-05-22T19:30:10.878Z,6.95
2023-05-22T19:32:39.628Z,6.70
2023-05-22T19:35:09.064Z,6.68
2023-05-22T19:37:37.514Z,6.38
2023-05-22T19:40:17.561Z,7.45
2023-05-22T19:42:47.518Z,7.10
2023-05-22T19:45:16.812Z,7.00
2023-05-22T19:47:45.483Z,6.63
2023-05-22T19:50:14.169Z,6.35
2023-05-22T19:52:42.731Z,6.90
2023-05-22T19:55:12.782Z,6.97
2023-05-22T19:57:44.312Z,6.78
2023-05-22T20:00:15.980Z,6.75
2023-05-22T20:02:44.725Z,6.57
2023-05-22T20:05:13.932Z,6.88
2023-05-22T20:07:42.834Z,7.25
2023-05-22T20:10:12.057Z,6.95
2023-05-22T20:12:40.775Z,7.10
2023-05-22T20:15:10.491Z,6.30
2023-05-22T20:17:41.858Z,7.15
2023-05-22T20:20:10.872Z,7.65
2023-05-22T20:22:39.448Z,7.07
2023-05-22T20:25:08.871Z,7.78
2023-05-22T20:27:37.786Z,6.78
2023-05-22T20:30:07.825Z,6.97
2023-05-22T20:32:36.689Z,7.18
2023-05-22T20:35:07.484Z,6.93
2023-05-22T20:37:38.188Z,7.95
2023-05-22T20:40:07.645Z,7.13
2023-05-22T20:42:36.336Z,8.60
2023-05-22T20:45:04.878Z,7.55
2023-05-22T20:47:33.306Z,7.72
2023-05-22T20:50:01.709Z,7.68
2023-05-22T20:52:32.028Z,7.95
2023-05-22T20:55:00.557Z,7.72
2023-05-22T20:57:29.192Z,7.85
2023-05-22T20:59:58.346Z,8.02
2023-05-22T21:02:27.528Z,7.82
2023-05-22T21:04:56.093Z,8.05
2023-05-22T21:07:29.474Z,7.95
2023-05-22T21:10:02.581Z,8.27
2023-05-22T21:12:37.315Z,8.02
2023-05-22T21:15:08.900Z,8.20
2023-05-22T21:17:44.271Z,8.32
2023-05-22T21:20:13.313Z,9.18
2023-05-22T21:22:41.757Z,9.75
2023-05-22T21:25:13.095Z,9.00
2023-05-22T21:27:41.557Z,8.90
2023-05-22T21:30:10.595Z,8.75
2023-05-22T21:32:40.321Z,9.38
2023-05-22T21:35:09.559Z,9.05
2023-05-22T21:37:38.240Z,9.68
2023-05-22T21:40:08.388Z,8.48
2023-05-22T21:42:46.451Z,9.55
2023-05-22T21:45:15.709Z,8.65
2023-05-22T21:47:44.338Z,8.77
2023-05-22T21:50:13.195Z,8.32
2023-05-22T21:52:41.993Z,8.32
2023-05-22T21:55:10.860Z,7.78
2023-05-22T21:57:40.732Z,7.82
2023-05-22T22:00:09.847Z,7.60
2023-05-22T22:02:38.349Z,8.18
2023-05-22T22:05:07.543Z,7.88
2023-05-22T22:07:36.013Z,7.55
2023-05-22T22:10:04.842Z,7.53
2023-05-22T22:12:33.468Z,7.68
2023-05-22T22:15:03.434Z,7.63
2023-05-22T22:17:34.847Z,8.15
2023-05-22T22:20:04.088Z,8.25
2023-05-22T22:22:32.492Z,8.38
2023-05-22T22:25:01.052Z,8.00
2023-05-22T22:27:29.487Z,8.23
2023-05-22T22:29:59.052Z,7.75
2023-05-22T22:32:28.853Z,7.60
2023-05-22T22:34:57.824Z,7.82
2023-05-22T22:37:26.322Z,7.88
2023-05-22T22:39:54.687Z,7.93
2023-05-22T22:42:23.195Z,8.27
2023-05-22T22:44:51.792Z,8.57
2023-05-22T22:47:20.592Z,8.18
2023-05-22T22:49:52.648Z,9.10
2023-05-22T22:52:21.203Z,9.38
2023-05-22T22:54:49.711Z,8.57
2023-05-22T22:57:18.297Z,8.93
2023-05-22T22:59:46.740Z,9.10
2023-05-22T23:02:15.184Z,9.35
2023-05-22T23:04:43.709Z,8.52
2023-05-22T23:07:13.643Z,8.68
2023-05-22T23:09:42.113Z,9.25
2023-05-22T23:12:10.672Z,9.32
2023-05-22T23:14:39.237Z,9.63
2023-05-22T23:17:07.653Z,9.68
2023-05-22T23:19:36.360Z,10.13
2023-05-22T23:22:04.828Z,9.43
2023-05-22T23:24:34.882Z,8.70
2023-05-22T23:27:03.380Z,9.32
2023-05-22T23:29:31.831Z,9.73
2023-05-22T23:32:00.531Z,9.00
2023-05-22T23:34:29.312Z,9.40
2023-05-22T23:36:57.921Z,8.55
2023-05-22T23:39:26.825Z,8.90
2023-05-22T23:41:56.716Z,8.45
2023-05-22T23:44:25.226Z,9.70
2023-05-22T23:46:53.940Z,8.95
2023-05-22T23:49:22.668Z,9.57
2023-05-22T23:51:51.182Z,9.23
2023-05-22T23:54:19.672Z,9.55
2023-05-22T23:56:48.145Z,8.80
2023-05-22T23:59:17.974Z,9.18
